createdAt,value
2023-04-25T00:00:34.068Z,81.88
2023-04-25T00:01:34.079Z,81.99
2023-04-25T00:02:34.122Z,81.88
2023-04-25T00:03:34.364Z,81.78
2023-04-25T00:04:34.428Z,81.68
2023-04-25T00:05:34.068Z,81.68
2023-04-25T00:06:34.009Z,81.78
2023-04-25T00:07:33.997Z,81.48
2023-04-25T00:08:33.968Z,81.57
2023-04-25T00:09:33.971Z,81.48
2023-04-25T00:10:33.942Z,81.37
2023-04-25T00:11:33.953Z,81.51
2023-04-25T00:12:33.919Z,81.41
2023-04-25T00:13:33.914Z,81.62
2023-04-25T00:14:33.886Z,81.82
2023-04-25T00:15:33.886Z,81.71
2023-04-25T00:16:34.197Z,81.62
2023-04-25T00:17:33.917Z,81.62
2023-04-25T00:18:33.853Z,81.48
2023-04-25T00:19:33.837Z,80.86
2023-04-25T00:20:33.831Z,80.86
2023-04-25T00:21:33.837Z,80.76
2023-04-25T00:22:33.798Z,80.55
2023-04-25T00:23:33.783Z,80.55
2023-04-25T00:24:33.769Z,80.65
2023-04-25T00:25:33.755Z,80.76
2023-04-25T00:26:33.750Z,80.86
2023-04-25T00:27:33.741Z,80.45
2023-04-25T00:28:33.751Z,80.35
2023-04-25T00:29:33.708Z,80.45
2023-04-25T00:30:33.689Z,80.65
2023-04-25T00:31:33.786Z,80.55
2023-04-25T00:32:33.704Z,80.35
2023-04-25T00:33:33.664Z,80.45
2023-04-25T00:34:33.623Z,80.55
2023-04-25T00:35:33.630Z,80.55
2023-04-25T00:36:33.611Z,80.65
2023-04-25T00:37:33.612Z,80.65
2023-04-25T00:38:33.592Z,80.55
2023-04-25T00:39:33.579Z,80.55
2023-04-25T00:40:33.560Z,80.76
2023-04-25T00:41:33.559Z,80.96
2023-04-25T00:42:33.532Z,81.48
2023-04-25T00:43:33.528Z,81.78
2023-04-25T00:44:33.508Z,81.88
2023-04-25T00:45:33.508Z,82.50
2023-04-25T00:46:33.502Z,83.05
2023-04-25T00:47:33.507Z,83.56
2023-04-25T00:48:33.458Z,83.56
2023-04-25T00:49:33.441Z,84.28
2023-04-25T00:50:33.435Z,84.49
2023-04-25T00:51:33.455Z,84.28
2023-04-25T00:52:33.411Z,84.49
2023-04-25T00:53:33.409Z,84.69
2023-04-25T00:54:33.381Z,85.00
2023-04-25T00:55:33.419Z,85.35
2023-04-25T00:56:33.350Z,85.86
2023-04-25T00:57:33.355Z,86.11
2023-04-25T00:58:33.340Z,86.72
2023-04-25T00:59:33.315Z,87.24
2023-04-25T01:00:33.416Z,87.45
2023-04-25T01:01:33.302Z,87.55
2023-04-25T01:02:33.396Z,87.65
2023-04-25T01:03:33.394Z,87.85
2023-04-25T01:04:33.341Z,88.06
2023-04-25T01:05:33.254Z,88.17
2023-04-25T01:06:33.241Z,88.47
2023-04-25T01:07:33.235Z,88.47
2023-04-25T01:08:33.200Z,88.78
2023-04-25T01:09:33.207Z,88.98
2023-04-25T01:10:33.176Z,88.92
2023-04-25T01:11:33.163Z,89.13
2023-04-25T01:12:33.155Z,88.62
2023-04-25T01:13:33.141Z,88.72
2023-04-25T01:14:33.131Z,89.03
2023-04-25T01:15:33.097Z,89.13
2023-04-25T01:16:33.134Z,88.82
2023-04-25T01:17:33.125Z,88.00
2023-04-25T01:18:33.057Z,87.79
2023-04-25T01:19:33.065Z,88.10
2023-04-25T01:20:33.052Z,88.20
2023-04-25T01:21:33.031Z,88.10
2023-04-25T01:22:33.025Z,88.20
2023-04-25T01:23:33.008Z,88.72
2023-04-25T01:24:32.993Z,88.82
2023-04-25T01:25:32.986Z,88.72
2023-04-25T01:26:32.972Z,88.82
2023-04-25T01:27:32.967Z,88.98
2023-04-25T01:28:32.939Z,88.92
2023-04-25T01:29:32.926Z,88.31
2023-04-25T01:30:32.894Z,87.90
2023-04-25T01:31:32.915Z,88.00
2023-04-25T01:32:32.954Z,88.10
2023-04-25T01:33:32.875Z,88.20
2023-04-25T01:34:32.870Z,88.31
2023-04-25T01:35:32.864Z,88.45
2023-04-25T01:36:32.827Z,88.66
2023-04-25T01:37:32.827Z,88.72
2023-04-25T01:38:32.809Z,88.86
2023-04-25T01:39:32.795Z,88.86
2023-04-25T01:40:32.780Z,88.96
2023-04-25T01:41:32.766Z,88.76
2023-04-25T01:42:32.764Z,88.76
2023-04-25T01:43:32.734Z,88.82
2023-04-25T01:44:32.726Z,89.34
2023-04-25T01:45:32.717Z,89.75
2023-04-25T01:46:32.745Z,89.13
2023-04-25T01:47:33.171Z,88.92
2023-04-25T01:48:32.687Z,88.92
2023-04-25T01:49:32.674Z,89.13
2023-04-25T01:50:32.654Z,89.13
2023-04-25T01:51:32.671Z,89.54
2023-04-25T01:53:29.424Z,89.75
2023-04-25T01:54:29.416Z,89.44
2023-04-25T01:55:29.407Z,89.34
2023-04-25T01:56:29.398Z,89.54
2023-04-25T01:57:29.375Z,89.34
2023-04-25T01:58:29.361Z,89.54
2023-04-25T01:59:29.353Z,89.85
2023-04-25T02:00:29.336Z,89.38
2023-04-25T02:01:29.373Z,89.48
2023-04-25T02:02:29.362Z,89.58
2023-04-25T02:03:29.436Z,89.34
2023-04-25T02:04:29.365Z,88.96
2023-04-25T02:05:29.260Z,88.86
2023-04-25T02:06:29.266Z,88.66
2023-04-25T02:07:29.246Z,88.86
2023-04-25T02:08:29.232Z,88.86
2023-04-25T02:09:29.213Z,89.07
2023-04-25T02:10:29.200Z,88.51
2023-04-25T02:11:29.217Z,88.41
2023-04-25T02:12:31.699Z,88.00
2023-04-25T02:13:29.169Z,88.31
2023-04-25T02:14:29.153Z,88.00
2023-04-25T02:15:29.152Z,88.10
2023-04-25T02:16:29.243Z,87.69
2023-04-25T02:17:29.130Z,87.59
2023-04-25T02:18:29.101Z,87.79
2023-04-25T02:19:29.098Z,87.59
2023-04-25T02:20:29.068Z,87.59
2023-04-25T02:21:29.067Z,87.59
2023-04-25T02:22:29.060Z,87.49
2023-04-25T02:23:29.038Z,87.49
2023-04-25T02:24:29.058Z,87.38
2023-04-25T02:25:29.008Z,87.49
2023-04-25T02:26:28.986Z,87.49
2023-04-25T02:27:28.999Z,87.49
2023-04-25T02:28:28.963Z,87.38
2023-04-25T02:29:28.961Z,87.49
2023-04-25T02:30:28.935Z,87.69
2023-04-25T02:31:28.962Z,87.90
2023-04-25T02:32:28.958Z,87.90
2023-04-25T02:33:28.889Z,88.00
2023-04-25T02:34:28.894Z,88.10
2023-04-25T02:35:28.870Z,88.10
2023-04-25T02:36:28.856Z,88.00
2023-04-25T02:37:28.844Z,87.79
2023-04-25T02:38:28.841Z,88.00
2023-04-25T02:39:28.816Z,88.10
2023-04-25T02:40:28.805Z,88.35
2023-04-25T02:41:28.804Z,88.51
2023-04-25T02:42:28.779Z,88.14
2023-04-25T02:43:28.770Z,88.24
2023-04-25T02:44:28.751Z,88.45
2023-04-25T02:45:28.747Z,88.56
2023-04-25T02:46:39.085Z,88.66
2023-04-25T02:47:29.778Z,88.86
2023-04-25T02:48:28.698Z,88.86
2023-04-25T02:49:28.681Z,89.07
2023-04-25T02:50:28.671Z,89.17
2023-04-25T02:51:28.658Z,89.07
2023-04-25T02:52:28.653Z,89.22
2023-04-25T02:53:28.637Z,89.31
2023-04-25T02:54:28.620Z,89.42
2023-04-25T02:55:28.622Z,89.52
2023-04-25T02:56:28.592Z,89.62
2023-04-25T02:57:28.588Z,89.83
2023-04-25T02:58:28.570Z,89.94
2023-04-25T02:59:28.551Z,89.73
2023-04-25T03:00:28.634Z,89.83
2023-04-25T03:01:28.583Z,90.00
2023-04-25T03:02:28.589Z,89.62
2023-04-25T03:03:28.596Z,89.52
2023-04-25T03:04:28.549Z,89.62
2023-04-25T03:05:28.461Z,89.62
2023-04-25T03:06:28.464Z,89.73
2023-04-25T03:07:28.458Z,89.83
2023-04-25T03:08:28.433Z,89.83
2023-04-25T03:09:28.421Z,90.03
2023-04-25T03:10:28.387Z,90.03
2023-04-25T03:11:28.387Z,90.14
2023-04-25T03:12:28.383Z,90.14
2023-04-25T03:13:28.388Z,90.34
2023-04-25T03:14:28.347Z,90.34
2023-04-25T03:15:28.341Z,90.45
2023-04-25T03:16:28.371Z,90.34
2023-04-25T03:17:28.335Z,90.24
2023-04-25T03:18:28.306Z,90.24
2023-04-25T03:19:28.278Z,90.34
2023-04-25T03:20:28.309Z,90.45
2023-04-25T03:21:28.244Z,90.34
2023-04-25T03:22:28.241Z,90.24
2023-04-25T03:23:28.220Z,90.03
2023-04-25T03:24:28.236Z,90.03
2023-04-25T03:25:28.193Z,90.14
2023-04-25T03:26:28.190Z,90.24
2023-04-25T03:27:28.177Z,90.03
2023-04-25T03:28:28.165Z,90.03
2023-04-25T03:29:28.147Z,90.14
2023-04-25T03:30:28.151Z,90.24
2023-04-25T03:31:28.200Z,90.14
2023-04-25T03:32:28.232Z,90.14
2023-04-25T03:33:28.090Z,90.14
2023-04-25T03:34:28.083Z,89.94
2023-04-25T03:35:28.051Z,90.03
2023-04-25T03:36:28.054Z,90.14
2023-04-25T03:37:28.026Z,90.03
2023-04-25T03:38:28.036Z,90.14
2023-04-25T03:39:28.014Z,90.03
2023-04-25T03:40:28.008Z,90.18
2023-04-25T03:41:27.984Z,90.28
2023-04-25T03:42:27.963Z,90.28
2023-04-25T03:43:27.961Z,90.28
2023-04-25T03:44:28.048Z,90.49
2023-04-25T03:45:27.938Z,90.59
2023-04-25T03:46:28.043Z,90.49
2023-04-25T03:47:27.934Z,90.39
2023-04-25T03:48:27.913Z,90.49
2023-04-25T04:02:05.684Z,90.39
2023-04-25T04:03:05.779Z,90.18
2023-04-25T04:04:05.863Z,90.08
2023-04-25T04:05:05.822Z,90.08
2023-04-25T04:06:05.622Z,90.18
2023-04-25T04:07:05.603Z,90.08
2023-04-25T04:08:05.605Z,90.03
2023-04-25T04:09:05.573Z,90.03
2023-04-25T04:10:05.537Z,89.94
2023-04-25T04:11:05.538Z,89.94
2023-04-25T04:12:05.534Z,89.94
2023-04-25T04:13:05.526Z,89.62
2023-04-25T04:14:05.488Z,89.62
2023-04-25T04:15:05.481Z,89.62
2023-04-25T04:16:05.612Z,89.62
2023-04-25T04:17:05.467Z,89.73
2023-04-25T04:18:05.561Z,89.73
2023-04-25T04:19:05.439Z,89.73
2023-04-25T04:20:05.417Z,89.62
2023-04-25T04:21:05.408Z,89.42
2023-04-25T04:22:05.398Z,89.17
2023-04-25T04:23:05.384Z,89.07
2023-04-25T04:24:05.376Z,88.96
2023-04-25T04:25:05.363Z,88.86
2023-04-25T04:26:05.329Z,88.76
2023-04-25T04:27:05.332Z,88.76
2023-04-25T04:28:05.317Z,88.86
2023-04-25T04:29:05.327Z,88.76
2023-04-25T04:30:05.280Z,88.66
2023-04-25T04:31:05.321Z,88.39
2023-04-25T04:32:05.251Z,88.49
2023-04-25T04:33:05.282Z,88.59
2023-04-25T04:34:05.244Z,88.66
2023-04-25T04:35:05.230Z,88.45
2023-04-25T04:36:05.208Z,88.45
2023-04-25T04:37:05.203Z,88.04
2023-04-25T04:38:05.187Z,87.94
2023-04-25T04:39:05.188Z,88.04
2023-04-25T04:40:05.151Z,88.04
2023-04-25T04:41:05.141Z,87.94
2023-04-25T04:42:05.157Z,87.94
2023-04-25T04:43:05.126Z,88.14
2023-04-25T04:44:06.160Z,88.14
2023-04-25T04:45:05.131Z,88.31
2023-04-25T04:46:05.132Z,88.10
2023-04-25T04:47:05.127Z,87.79
2023-04-25T04:48:05.162Z,88.10
2023-04-25T04:49:05.057Z,88.20
2023-04-25T04:50:05.021Z,88.00
2023-04-25T04:51:05.003Z,88.20
2023-04-25T04:52:04.992Z,88.14
2023-04-25T04:53:04.987Z,88.14
2023-04-25T04:54:05.027Z,88.20
2023-04-25T04:55:04.974Z,88.31
2023-04-25T04:56:04.953Z,88.62
2023-04-25T04:57:04.928Z,88.92
2023-04-25T04:58:04.919Z,88.82
2023-04-25T04:59:04.919Z,88.41
2023-04-25T05:00:04.886Z,88.35
2023-04-25T05:01:04.920Z,87.94
2023-04-25T05:02:04.891Z,87.94
2023-04-25T05:03:04.963Z,88.04
2023-04-25T05:04:05.126Z,88.35
2023-04-25T05:05:04.863Z,88.66
2023-04-25T05:06:04.809Z,88.76
2023-04-25T05:07:04.811Z,88.66
2023-04-25T05:08:04.788Z,88.76
2023-04-25T05:09:04.793Z,88.90
2023-04-25T05:10:04.798Z,89.11
2023-04-25T05:11:04.739Z,89.22
2023-04-25T05:12:04.732Z,89.62
2023-04-25T05:13:04.715Z,89.73
2023-04-25T05:14:04.740Z,89.62
2023-04-25T05:15:04.717Z,89.42
2023-04-25T05:16:04.722Z,89.42
2023-04-25T05:17:04.673Z,88.90
2023-04-25T05:18:04.703Z,88.45
2023-04-25T05:19:04.658Z,88.45
2023-04-25T05:20:04.628Z,88.24
2023-04-25T05:21:04.613Z,88.04
2023-04-25T05:22:04.613Z,88.24
2023-04-25T05:23:04.625Z,88.45
2023-04-25T05:24:04.585Z,88.66
2023-04-25T05:25:04.598Z,88.45
2023-04-25T05:26:04.543Z,88.76
2023-04-25T05:27:04.529Z,89.07
2023-04-25T05:28:04.530Z,89.07
2023-04-25T05:29:04.523Z,88.96
2023-04-25T05:30:04.506Z,88.86
2023-04-25T05:31:04.494Z,88.96
2023-04-25T05:32:04.575Z,88.96
2023-04-25T05:33:04.523Z,88.96
2023-04-25T05:34:04.469Z,89.17
2023-04-25T05:35:04.442Z,89.07
2023-04-25T05:36:04.412Z,88.76
2023-04-25T05:37:04.429Z,88.35
2023-04-25T05:38:04.387Z,88.04
2023-04-25T05:39:04.381Z,87.52
2023-04-25T05:40:04.363Z,87.52
2023-04-25T05:41:04.358Z,87.73
2023-04-25T05:42:04.353Z,86.91
2023-04-25T05:43:04.333Z,87.32
2023-04-25T05:44:04.318Z,87.42
2023-04-25T05:45:04.304Z,87.32
2023-04-25T05:46:04.361Z,87.52
2023-04-25T05:47:04.283Z,87.42
2023-04-25T05:48:04.339Z,87.52
2023-04-25T05:49:04.262Z,87.52
2023-04-25T05:50:04.231Z,87.42
2023-04-25T05:51:04.230Z,87.22
2023-04-25T05:52:04.221Z,87.32
2023-04-25T05:53:04.203Z,87.42
2023-04-25T05:54:04.202Z,87.32
2023-04-25T05:55:04.170Z,87.32
2023-04-25T05:56:04.170Z,87.12
2023-04-25T05:57:04.150Z,87.32
2023-04-25T05:58:04.130Z,87.38
2023-04-25T05:59:04.141Z,87.07
2023-04-25T06:00:04.099Z,86.80
2023-04-25T06:01:04.095Z,87.12
2023-04-25T06:02:04.084Z,87.22
2023-04-25T06:03:04.340Z,87.01
2023-04-25T06:04:04.724Z,87.12
2023-04-25T06:05:04.200Z,86.80
2023-04-25T06:06:04.171Z,86.80
2023-04-25T06:07:03.997Z,86.91
2023-04-25T06:08:04.001Z,87.12
2023-04-25T06:09:04.198Z,87.32
2023-04-25T06:10:03.972Z,87.52
2023-04-25T06:11:03.954Z,87.73
2023-04-25T06:12:03.941Z,87.42
2023-04-25T06:13:03.921Z,87.49
2023-04-25T06:14:03.936Z,87.28
2023-04-25T06:15:08.213Z,87.52
2023-04-25T06:16:04.941Z,87.52
2023-04-25T06:17:03.881Z,87.73
2023-04-25T06:18:03.873Z,87.84
2023-04-25T06:19:03.864Z,88.04
2023-04-25T06:20:05.739Z,88.35
2023-04-25T06:21:03.828Z,88.76
2023-04-25T06:22:03.802Z,88.66
2023-04-25T06:23:03.803Z,88.66
2023-04-25T06:24:03.785Z,88.86
2023-04-25T06:25:03.760Z,88.86
2023-04-25T06:26:03.751Z,89.17
2023-04-25T06:27:03.744Z,89.28
2023-04-25T06:28:03.728Z,89.58
2023-04-25T06:29:03.717Z,89.69
2023-04-25T06:30:03.697Z,89.69
2023-04-25T06:31:03.720Z,89.69
2023-04-25T06:32:03.677Z,89.69
2023-04-25T06:33:03.796Z,89.69
2023-04-25T06:34:03.646Z,89.79
2023-04-25T06:35:03.635Z,89.89
2023-04-25T06:36:03.621Z,89.48
2023-04-25T06:37:03.600Z,89.48
2023-04-25T06:38:03.598Z,89.38
2023-04-25T06:39:03.599Z,89.28
2023-04-25T06:40:03.576Z,89.69
2023-04-25T06:41:03.566Z,89.38
2023-04-25T06:42:03.533Z,89.58
2023-04-25T06:43:03.532Z,89.58
2023-04-25T06:44:03.536Z,89.79
2023-04-25T06:45:03.503Z,89.48
2023-04-25T06:46:03.491Z,89.48
2023-04-25T06:47:03.497Z,89.58
2023-04-25T06:48:03.479Z,90.00
2023-04-25T06:49:03.474Z,90.20
2023-04-25T06:50:03.446Z,90.41
2023-04-25T06:51:03.425Z,90.61
2023-04-25T06:52:03.403Z,90.30
2023-04-25T06:53:03.396Z,90.41
2023-04-25T06:54:03.380Z,90.41
2023-04-25T06:55:03.389Z,90.72
2023-04-25T06:56:03.369Z,90.78
2023-04-25T06:57:03.344Z,90.57
2023-04-25T06:58:03.328Z,90.26
2023-04-25T06:59:03.323Z,90.36
2023-04-25T07:00:03.308Z,90.78
2023-04-25T07:01:03.353Z,90.36
2023-04-25T07:02:03.266Z,90.06
2023-04-25T07:03:03.466Z,90.47
2023-04-25T07:04:03.407Z,89.34
2023-04-25T07:05:03.229Z,88.92
2023-04-25T07:06:03.225Z,88.31
2023-04-25T07:07:03.211Z,87.49
2023-04-25T07:08:03.196Z,87.18
2023-04-25T07:09:03.185Z,87.07
2023-04-25T07:10:03.221Z,87.28
2023-04-25T07:11:03.154Z,87.07
2023-04-25T07:12:03.138Z,87.34
2023-04-25T07:13:03.141Z,87.34
2023-04-25T07:14:03.120Z,87.34
2023-04-25T07:15:03.124Z,87.04
2023-04-25T07:16:03.115Z,86.83
2023-04-25T07:17:03.124Z,86.99
2023-04-25T07:18:03.075Z,86.99
2023-04-25T07:19:03.079Z,87.20
2023-04-25T07:20:03.034Z,85.55
2023-04-25T07:21:03.197Z,85.97
2023-04-25T07:22:03.008Z,85.76
2023-04-25T07:23:03.002Z,85.97
2023-04-25T07:24:02.997Z,85.66
2023-04-25T07:25:02.994Z,85.66
2023-04-25T07:26:02.959Z,85.35
2023-04-25T07:27:02.942Z,85.66
2023-04-25T07:28:02.941Z,85.60
2023-04-25T07:29:03.117Z,85.70
2023-04-25T07:30:02.906Z,86.11
2023-04-25T07:31:02.895Z,86.11
2023-04-25T07:32:03.023Z,85.90
2023-04-25T07:33:02.933Z,86.11
2023-04-25T07:34:02.863Z,85.33
2023-04-25T07:35:02.840Z,84.81
2023-04-25T07:36:02.812Z,85.02
2023-04-25T07:37:02.805Z,84.20
2023-04-25T07:38:02.796Z,82.90
2023-04-25T07:39:02.804Z,82.48
2023-04-25T07:40:02.778Z,82.79
2023-04-25T07:41:02.756Z,82.69
2023-04-25T07:42:02.739Z,82.69
2023-04-25T07:43:02.733Z,83.00
2023-04-25T07:44:02.715Z,83.25
2023-04-25T07:45:02.733Z,83.76
2023-04-25T07:46:02.735Z,84.58
2023-04-25T07:47:04.489Z,85.55
2023-04-25T07:48:02.723Z,85.75
2023-04-25T07:49:02.663Z,85.75
2023-04-25T07:50:02.642Z,87.03
2023-04-25T07:51:02.615Z,87.54
2023-04-25T07:52:02.620Z,88.57
2023-04-25T07:53:02.608Z,88.68
2023-04-25T07:54:02.635Z,89.40
2023-04-25T07:55:02.601Z,89.71
2023-04-25T07:56:02.566Z,90.01
2023-04-25T07:57:02.555Z,89.67
2023-04-25T07:58:02.551Z,89.25
2023-04-25T07:59:02.521Z,88.68
2023-04-25T08:00:02.531Z,88.57
2023-04-25T08:01:02.515Z,88.57
2023-04-25T08:02:02.493Z,88.37
2023-04-25T08:03:02.650Z,88.26
2023-04-25T08:04:02.718Z,88.26
2023-04-25T08:05:02.637Z,88.53
2023-04-25T08:06:05.755Z,88.74
2023-04-25T08:07:03.427Z,88.33
2023-04-25T08:08:02.420Z,86.79
2023-04-25T08:09:02.387Z,86.58
2023-04-25T08:10:02.387Z,86.43
2023-04-25T08:11:02.361Z,87.36
2023-04-25T08:12:02.368Z,86.47
2023-04-25T08:13:02.340Z,86.23
2023-04-25T08:14:02.343Z,86.64
2023-04-25T08:15:02.322Z,87.15
2023-04-25T08:16:02.469Z,86.85
2023-04-25T08:17:02.298Z,86.95
2023-04-25T08:18:02.342Z,86.54
2023-04-25T08:19:02.279Z,85.75
2023-04-25T08:20:02.288Z,84.21
2023-04-25T08:21:02.244Z,84.11
2023-04-25T08:22:02.247Z,79.68
2023-04-25T08:23:02.220Z,78.96
2023-04-25T08:24:02.673Z,79.88
2023-04-25T08:25:02.203Z,79.75
2023-04-25T08:26:02.198Z,80.16
2023-04-25T08:27:02.176Z,80.77
2023-04-25T08:28:02.155Z,81.49
2023-04-25T08:29:02.155Z,82.63
2023-04-25T08:30:02.137Z,83.41
2023-04-25T08:31:02.134Z,82.18
2023-04-25T08:32:02.098Z,81.35
2023-04-25T08:33:02.154Z,81.25
2023-04-25T08:34:02.094Z,81.87
2023-04-25T08:35:02.055Z,83.00
2023-04-25T08:36:02.069Z,80.53
2023-04-25T08:37:02.048Z,81.25
2023-04-25T08:38:02.013Z,81.35
2023-04-25T08:39:02.014Z,82.14
2023-04-25T08:40:02.004Z,82.55
2023-04-25T08:41:01.978Z,82.96
2023-04-25T08:42:01.980Z,82.20
2023-04-25T08:43:01.996Z,82.41
2023-04-25T08:44:02.460Z,81.38
2023-04-25T08:45:04.231Z,80.25
2023-04-25T08:46:01.945Z,80.15
2023-04-25T08:47:01.925Z,81.34
2023-04-25T08:48:01.927Z,82.33
2023-04-25T08:49:01.878Z,81.30
2023-04-25T08:50:01.872Z,79.63
2023-04-25T08:51:01.850Z,78.39
2023-04-25T08:52:01.846Z,79.01
2023-04-25T08:53:01.832Z,79.90
2023-04-25T08:54:08.910Z,79.69
2023-04-25T08:55:02.811Z,78.32
2023-04-25T08:56:01.797Z,78.53
2023-04-25T08:57:01.754Z,77.09
2023-04-25T08:58:01.758Z,76.72
2023-04-25T08:59:01.747Z,76.89
2023-04-25T09:00:01.726Z,76.68
2023-04-25T09:01:01.785Z,76.99
2023-04-25T09:02:01.967Z,76.24
2023-04-25T09:03:01.956Z,75.24
2023-04-25T09:04:01.840Z,74.87
2023-04-25T09:05:01.679Z,75.79
2023-04-25T09:06:01.680Z,76.10
2023-04-25T09:07:01.802Z,76.41
2023-04-25T09:08:01.621Z,77.20
2023-04-25T09:09:01.659Z,77.29
2023-04-25T09:10:01.615Z,76.03
2023-04-25T09:11:01.601Z,76.37
2023-04-25T09:12:01.559Z,76.85
2023-04-25T09:13:01.548Z,77.06
2023-04-25T09:14:01.544Z,75.52
2023-04-25T09:15:01.543Z,75.62
2023-04-25T09:16:01.521Z,76.89
2023-04-25T09:17:01.606Z,76.68
2023-04-25T09:18:01.540Z,77.20
2023-04-25T09:19:01.484Z,77.29
2023-04-25T09:20:01.516Z,77.09
2023-04-25T09:21:04.221Z,77.91
2023-04-25T09:22:02.467Z,78.22
2023-04-25T09:23:01.412Z,78.22
2023-04-25T09:24:01.433Z,77.61
2023-04-25T09:25:01.425Z,77.91
2023-04-25T09:26:01.431Z,78.42
2023-04-25T09:27:01.366Z,78.32
2023-04-25T09:28:01.366Z,78.94
2023-04-25T09:29:01.355Z,77.81
2023-04-25T09:30:01.344Z,78.32
2023-04-25T09:31:01.319Z,78.19
2023-04-25T09:32:01.354Z,76.24
2023-04-25T09:33:01.340Z,76.10
2023-04-25T09:34:01.643Z,77.23
2023-04-25T09:35:01.275Z,75.99
2023-04-25T09:36:01.266Z,76.10
2023-04-25T09:37:01.230Z,75.69
2023-04-25T09:38:01.247Z,75.65
2023-04-25T09:39:01.221Z,76.06
2023-04-25T09:40:01.231Z,76.43
2023-04-25T09:41:01.205Z,73.74
2023-04-25T09:42:01.179Z,74.05
2023-04-25T09:43:01.177Z,74.26
2023-04-25T09:44:01.632Z,73.74
2023-04-25T09:45:01.132Z,73.91
2023-04-25T09:46:01.177Z,70.78
2023-04-25T10:02:25.188Z,65.92
2023-04-25T10:03:25.130Z,66.22
2023-04-25T10:04:25.034Z,66.42
2023-04-25T10:05:25.013Z,65.68
2023-04-25T10:06:24.999Z,65.78
2023-04-25T10:07:24.976Z,64.12
2023-04-25T10:08:24.958Z,63.10
2023-04-25T10:09:24.953Z,64.43
2023-04-25T10:10:24.981Z,63.38
2023-04-25T10:11:24.914Z,62.87
2023-04-25T10:12:24.913Z,63.96
2023-04-25T10:13:24.897Z,63.86
2023-04-25T10:14:24.892Z,62.74
2023-04-25T10:15:24.918Z,62.92
2023-04-25T10:16:24.926Z,61.69
2023-04-25T10:17:24.895Z,62.51
2023-04-25T10:18:24.851Z,62.13
2023-04-25T10:19:24.819Z,63.62
2023-04-25T10:20:24.813Z,63.83
2023-04-25T10:21:24.809Z,60.77
2023-04-25T10:22:24.800Z,61.31
2023-04-25T10:23:24.768Z,61.24
2023-04-25T10:24:24.748Z,61.44
2023-04-25T10:25:24.767Z,60.14
2023-04-25T10:26:24.716Z,59.41
2023-04-25T10:27:24.736Z,59.61
2023-04-25T10:28:24.757Z,59.10
2023-04-25T10:29:24.682Z,59.89
2023-04-25T10:30:24.684Z,59.75
2023-04-25T10:31:24.796Z,59.53
2023-04-25T10:32:24.646Z,57.97
2023-04-25T10:33:24.630Z,55.12
2023-04-25T10:34:24.611Z,54.92
2023-04-25T10:35:24.629Z,54.31
2023-04-25T10:36:24.603Z,54.00
2023-04-25T10:37:24.578Z,54.79
2023-04-25T10:38:24.573Z,54.49
2023-04-25T10:39:24.558Z,52.66
2023-04-25T10:40:24.554Z,52.05
2023-04-25T10:41:24.541Z,51.64
2023-04-25T10:42:24.513Z,51.72
2023-04-25T10:43:24.512Z,53.02
2023-04-25T10:44:24.474Z,51.49
2023-04-25T10:45:24.518Z,51.51
2023-04-25T10:46:24.538Z,52.51
2023-04-25T10:47:24.479Z,52.10
2023-04-25T10:48:24.439Z,52.20
2023-04-25T10:49:24.444Z,52.94
2023-04-25T10:50:24.421Z,53.24
2023-04-25T10:51:24.414Z,53.39
2023-04-25T10:52:24.389Z,54.00
2023-04-25T10:53:24.378Z,53.93
2023-04-25T10:54:24.377Z,54.49
2023-04-25T10:55:24.347Z,54.79
2023-04-25T10:56:24.367Z,55.02
2023-04-25T10:57:24.337Z,55.84
2023-04-25T10:58:24.311Z,55.74
2023-04-25T10:59:24.291Z,55.46
2023-04-25T11:00:25.717Z,56.24
2023-04-25T11:01:24.304Z,55.91
2023-04-25T11:02:24.357Z,54.97
2023-04-25T11:03:24.324Z,54.82
2023-04-25T11:04:24.407Z,54.00
2023-04-25T11:05:24.208Z,53.88
2023-04-25T11:06:24.219Z,54.16
2023-04-25T11:07:24.183Z,52.81
2023-04-25T11:08:24.180Z,52.00
2023-04-25T11:09:24.167Z,52.48
2023-04-25T11:10:24.155Z,52.18
2023-04-25T11:11:24.156Z,52.05
2023-04-25T11:12:24.142Z,51.04
2023-04-25T11:13:24.129Z,51.44
2023-04-25T11:14:24.122Z,49.54
2023-04-25T11:15:24.122Z,51.18
2023-04-25T11:16:28.327Z,51.34
2023-04-25T11:17:24.163Z,52.48
2023-04-25T11:18:24.153Z,52.81
2023-04-25T11:19:24.034Z,54.03
2023-04-25T11:20:24.042Z,53.96
2023-04-25T11:21:24.158Z,54.36
2023-04-25T11:22:23.994Z,54.36
2023-04-25T11:23:23.982Z,54.46
2023-04-25T11:24:23.968Z,54.18
2023-04-25T11:25:23.970Z,55.10
2023-04-25T11:26:23.959Z,55.10
2023-04-25T11:27:23.938Z,55.74
2023-04-25T11:28:24.686Z,55.53
2023-04-25T11:29:23.944Z,55.74
2023-04-25T11:30:23.897Z,56.04
2023-04-25T11:31:23.911Z,56.52
2023-04-25T11:32:25.402Z,55.30
2023-04-25T11:33:23.907Z,55.30
2023-04-25T11:34:23.861Z,54.36
2023-04-25T11:35:24.009Z,54.44
2023-04-25T11:36:23.851Z,53.70
2023-04-25T11:37:23.807Z,54.18
2023-04-25T11:38:25.270Z,53.34
2023-04-25T11:39:23.776Z,52.40
2023-04-25T11:40:23.765Z,51.70
2023-04-25T11:41:23.751Z,51.70
2023-04-25T11:42:23.767Z,52.40
2023-04-25T11:43:23.748Z,53.04
2023-04-25T11:44:23.750Z,54.66
2023-04-25T11:45:23.703Z,54.18
2023-04-25T11:46:23.698Z,56.04
2023-04-25T11:47:23.755Z,56.88
2023-04-25T11:48:26.331Z,55.96
2023-04-25T11:49:23.642Z,57.62
2023-04-25T11:50:23.629Z,57.44
2023-04-25T11:51:23.623Z,58.15
2023-04-25T11:52:23.622Z,58.56
2023-04-25T11:53:23.596Z,58.28
2023-04-25T11:54:23.600Z,58.59
2023-04-25T11:55:23.574Z,58.80
2023-04-25T11:56:23.562Z,58.89
2023-04-25T11:57:23.566Z,58.28
2023-04-25T11:58:23.548Z,59.07
2023-04-25T11:59:23.534Z,58.51
2023-04-25T12:00:23.532Z,56.04
2023-04-25T12:01:23.494Z,56.93
2023-04-25T12:02:23.577Z,57.79
2023-04-25T12:03:23.711Z,56.34
2023-04-25T12:04:23.910Z,53.19
2023-04-25T12:06:25.558Z,51.77
2023-04-25T12:07:23.424Z,50.86
2023-04-25T12:08:23.416Z,51.44
2023-04-25T12:09:23.407Z,50.43
2023-04-25T12:10:23.381Z,48.60
2023-04-25T12:11:23.371Z,50.00
2023-04-25T12:12:23.375Z,51.27
2023-04-25T12:13:23.399Z,49.73
2023-04-25T12:14:23.345Z,49.60
2023-04-25T12:15:23.306Z,48.71
2023-04-25T12:16:23.371Z,48.21
2023-04-25T12:17:23.287Z,50.86
2023-04-25T12:18:23.299Z,48.96
2023-04-25T12:19:23.274Z,49.11
2023-04-25T12:20:23.246Z,50.04
2023-04-25T12:21:23.237Z,50.15
2023-04-25T12:22:23.234Z,50.68
2023-04-25T12:23:23.217Z,51.23
2023-04-25T12:24:23.205Z,53.37
2023-04-25T12:25:23.177Z,53.47
2023-04-25T12:26:23.173Z,54.49
2023-04-25T12:27:23.157Z,53.78
2023-04-25T12:28:23.149Z,54.16
2023-04-25T12:29:23.823Z,52.66
2023-04-25T12:30:23.106Z,52.45
2023-04-25T12:31:23.146Z,52.48
2023-04-25T12:32:23.146Z,52.28
2023-04-25T12:33:23.084Z,52.68
2023-04-25T12:34:23.063Z,53.83
2023-04-25T12:35:23.037Z,54.24
2023-04-25T12:36:23.029Z,53.32
2023-04-25T12:37:23.047Z,52.00
2023-04-25T12:38:23.016Z,54.03
2023-04-25T12:39:22.999Z,53.72
2023-04-25T12:40:22.980Z,53.19
2023-04-25T12:41:22.973Z,52.96
2023-04-25T12:42:22.962Z,53.24
2023-04-25T12:43:22.939Z,52.94
2023-04-25T12:44:22.935Z,51.21
2023-04-25T12:45:22.928Z,50.09
2023-04-25T12:46:22.975Z,50.62
2023-04-25T12:47:22.914Z,51.34
2023-04-25T12:48:22.875Z,52.37
2023-04-25T12:49:22.860Z,51.39
2023-04-25T12:50:22.858Z,52.50
2023-04-25T12:51:22.832Z,52.63
2023-04-25T12:52:22.837Z,53.55
2023-04-25T12:53:22.814Z,53.88
2023-04-25T12:54:22.819Z,54.28
2023-04-25T12:55:22.794Z,54.08
2023-04-25T12:56:24.644Z,54.59
2023-04-25T12:57:22.762Z,54.82
2023-04-25T12:58:22.748Z,54.82
2023-04-25T12:59:22.732Z,55.61
2023-04-25T13:00:22.730Z,54.79
2023-04-25T13:01:22.722Z,55.30
2023-04-25T13:02:22.842Z,55.00
2023-04-25T13:03:22.842Z,53.98
2023-04-25T13:04:22.760Z,53.37
2023-04-25T13:05:22.655Z,54.41
2023-04-25T13:06:22.632Z,54.31
2023-04-25T13:07:22.654Z,54.21
2023-04-25T13:08:22.621Z,54.82
2023-04-25T13:09:22.624Z,54.61
2023-04-25T13:10:22.590Z,55.02
2023-04-25T13:11:22.643Z,54.49
2023-04-25T13:12:22.675Z,53.78
2023-04-25T13:13:22.549Z,53.88
2023-04-25T13:14:22.569Z,53.57
2023-04-25T13:15:22.527Z,53.75
2023-04-25T13:16:22.604Z,52.91
2023-04-25T13:17:22.522Z,53.90
2023-04-25T13:18:22.480Z,53.67
2023-04-25T13:19:22.466Z,52.96
2023-04-25T13:20:22.459Z,52.94
2023-04-25T13:21:22.442Z,52.45
2023-04-25T13:22:22.509Z,52.15